< < Back
Terminal Aerodrome Forecast


Current Version              Previous Versions:   1  2  3  4  5  6  7  8  9  

Terminal Aerodrome Forecast

490
FTUS42 KJAX 062340
TAFGNV
TAF
KGNV 062340Z 0700/0724 36010KT 5SM -RA BR BKN015 OVC020
     FM070600 34015G23KT P6SM VCSH OVC020
     FM071200 34013KT P6SM SCT020 BKN040
     FM071500 32014G21KT P6SM FEW030=



Latest METAR

169
SAUS70 KWBC 070100 RRE
MTRGNV
METAR KGNV 070053Z 34011KT 6SM -RA BR OVC007 08/07 A3011 RMK AO2 CIG
004V011 SLP198 P0002 T00780072


USA.gov is the U.S. government's official web portal to all federal, state and local government web resources and services.